Time;durP1;ratioP1;P1;durP2;ratioP2;P2;SDS_P1;SDS_P2;PMS_P1;PMS_P2;Temp;Humidity;BMP_temperature;BMP_pressure;BME280_temperature;BME280_humidity;BME280_pressure;Samples;Min_cycle;Max_cycle;Signal;HPM_P1;HPM_P2
2021/03/07 00:00:24;;;;;;;24.02;10.13;;;4.50;55.70;;;;;;2558133;53;20892;-66
2021/03/07 00:02:53;;;;;;;22.23;9.50;;;4.50;55.60;;;;;;2334888;54;20928;-67
2021/03/07 00:05:20;;;;;;;18.12;8.02;;;4.40;55.70;;;;;;2554943;53;21070;-67
2021/03/07 00:07:47;;;;;;;16.15;7.40;;;4.40;55.80;;;;;;2333891;54;21031;-67
2021/03/07 00:10:14;;;;;;;11.27;5.70;;;4.30;55.80;;;;;;2556918;53;21029;-67
2021/03/07 00:12:41;;;;;;;11.27;5.25;;;4.30;55.90;;;;;;2334569;54;20938;-67
2021/03/07 00:15:10;;;;;;;12.98;6.07;;;4.20;55.70;;;;;;2564765;53;21197;-66
2021/03/07 00:17:37;;;;;;;13.18;6.72;;;4.20;55.80;;;;;;2326366;54;20930;-67
2021/03/07 00:20:09;;;;;;;12.13;5.60;;;4.10;55.80;;;;;;2556425;53;20899;-66
2021/03/07 00:22:35;;;;;;;11.02;5.75;;;4.00;55.80;;;;;;2557573;53;21800;-67
2021/03/07 00:25:06;;;;;;;11.82;6.45;;;4.00;55.90;;;;;;2323886;54;20922;-67
2021/03/07 00:27:35;;;;;;;12.18;5.78;;;3.90;55.90;;;;;;2326853;54;21672;-67
2021/03/07 00:30:03;;;;;;;11.90;5.45;;;3.90;56.00;;;;;;2566732;53;20987;-67
2021/03/07 00:32:29;;;;;;;9.25;4.40;;;3.80;56.00;;;;;;2328822;54;21066;-66
2021/03/07 00:34:56;;;;;;;7.10;4.07;;;3.70;56.00;;;;;;2571236;53;21093;-67
2021/03/07 00:37:22;;;;;;;10.48;5.20;;;3.50;55.90;;;;;;2324643;54;21010;-66
2021/03/07 00:39:55;;;;;;;10.27;5.35;;;3.60;56.10;;;;;;2556679;53;20890;-67
2021/03/07 00:42:22;;;;;;;9.55;5.07;;;3.60;56.20;;;;;;2324394;54;21769;-68
2021/03/07 00:44:49;;;;;;;7.43;4.35;;;3.50;56.20;;;;;;2563879;53;20974;-67
2021/03/07 00:47:18;;;;;;;9.88;4.78;;;3.50;56.30;;;;;;2557428;53;20957;-67
2021/03/07 00:49:45;;;;;;;9.80;5.25;;;3.50;56.40;;;;;;2556593;53;21033;-67
2021/03/07 00:52:12;;;;;;;9.40;4.90;;;3.40;56.50;;;;;;2570249;53;20917;-67
2021/03/07 00:54:38;;;;;;;9.63;5.45;;;3.40;56.50;;;;;;2332190;54;21530;-67
2021/03/07 00:57:06;;;;;;;13.20;5.72;;;3.40;56.60;;;;;;2568208;53;20946;-67
2021/03/07 00:59:32;;;;;;;8.20;4.97;;;3.30;56.70;;;;;;2327647;54;21003;-67
2021/03/07 01:01:58;;;;;;;10.98;6.05;;;3.30;56.80;;;;;;2557288;53;20984;-67
2021/03/07 01:04:25;;;;;;;11.18;5.70;;;3.30;56.90;;;;;;2331240;54;20950;-69
2021/03/07 01:06:51;;;;;;;10.80;5.65;;;3.30;57.00;;;;;;2323256;54;20982;-66
2021/03/07 01:09:18;;;;;;;10.18;5.40;;;3.30;57.10;;;;;;2335565;54;20914;-67
2021/03/07 01:11:59;;;;;;;11.23;5.95;;;3.20;57.20;;;;;;2330294;54;20990;-66
2021/03/07 01:14:25;;;;;;;12.90;6.53;;;3.20;57.30;;;;;;2559346;53;20932;-67
2021/03/07 01:16:53;;;;;;;12.23;6.55;;;3.20;57.40;;;;;;2556357;53;21034;-67
2021/03/07 01:19:20;;;;;;;11.68;5.78;;;3.20;57.50;;;;;;2323047;54;20966;-67
2021/03/07 01:21:46;;;;;;;9.93;5.30;;;3.20;57.60;;;;;;2323485;54;20954;-66
2021/03/07 01:24:12;;;;;;;10.45;5.20;;;3.20;57.50;;;;;;2563377;53;21002;-67
2021/03/07 01:26:39;;;;;;;11.52;6.32;;;3.20;57.50;;;;;;2563697;53;21022;-67
2021/03/07 01:29:05;;;;;;;9.00;5.07;;;3.20;57.50;;;;;;2323382;54;20898;-66
2021/03/07 01:31:31;;;;;;;9.32;4.80;;;3.20;57.50;;;;;;2554706;53;20933;-67
2021/03/07 01:33:58;;;;;;;11.48;6.00;;;3.20;57.50;;;;;;2323030;54;21035;-67
2021/03/07 01:36:24;;;;;;;10.45;5.62;;;3.20;57.60;;;;;;2335782;54;21931;-66
2021/03/07 01:39:03;;;;;;;11.48;5.90;;;3.20;57.70;;;;;;2556468;53;21074;-67
2021/03/07 01:41:29;;;;;;;9.43;5.50;;;3.20;57.70;;;;;;2329522;54;20991;-67
2021/03/07 01:43:55;;;;;;;10.13;5.93;;;3.20;57.80;;;;;;2329243;54;21439;-67
2021/03/07 01:46:22;;;;;;;10.77;5.87;;;3.20;57.80;;;;;;2557664;53;21772;-67
2021/03/07 01:48:49;;;;;;;9.80;4.97;;;3.20;57.90;;;;;;2322955;54;20970;-68
2021/03/07 01:51:15;;;;;;;10.50;5.55;;;3.20;58.00;;;;;;2570851;53;20993;-67
2021/03/07 01:53:41;;;;;;;8.80;4.70;;;3.20;58.00;;;;;;2327485;54;21041;-67
2021/03/07 01:56:09;;;;;;;11.80;5.65;;;3.20;58.00;;;;;;2327235;54;20959;-67
2021/03/07 01:58:36;;;;;;;12.18;6.10;;;3.20;58.10;;;;;;2561272;53;20935;-67
2021/03/07 02:01:02;;;;;;;10.70;5.75;;;3.20;58.10;;;;;;2555541;53;20966;-68
2021/03/07 02:03:29;;;;;;;11.50;5.87;;;3.20;58.20;;;;;;2323856;54;20998;-67
2021/03/07 02:05:55;;;;;;;11.55;5.82;;;3.30;58.30;;;;;;2570530;53;20961;-67
2021/03/07 02:08:22;;;;;;;10.07;5.28;;;3.30;58.30;;;;;;2557361;53;20922;-67
2021/03/07 02:10:56;;;;;;;8.18;4.28;;;3.30;58.30;;;;;;2556891;53;20954;-67
2021/03/07 02:13:31;;;;;;;8.95;5.35;;;3.30;58.20;;;;;;2330431;54;20940;-67
2021/03/07 02:15:58;;;;;;;9.32;5.68;;;3.30;58.20;;;;;;2340741;54;20966;-66
2021/03/07 02:18:27;;;;;;;11.88;6.25;;;3.30;58.10;;;;;;2556969;53;21773;-67
2021/03/07 02:20:59;;;;;;;11.15;5.87;;;3.30;58.10;;;;;;2325845;54;20986;-67
2021/03/07 02:23:29;;;;;;;11.88;6.62;;;3.30;58.10;;;;;;2556324;53;21049;-67
2021/03/07 02:25:57;;;;;;;9.00;5.22;;;3.30;58.10;;;;;;2557306;53;21663;-66
2021/03/07 02:28:24;;;;;;;12.00;6.35;;;3.30;58.20;;;;;;2327218;54;21088;-67
2021/03/07 02:30:50;;;;;;;10.27;5.18;;;3.20;58.30;;;;;;2323636;54;20966;-67
2021/03/07 02:33:36;;;;;;;13.18;6.95;;;3.30;58.40;;;;;;2557752;53;21796;-68
2021/03/07 02:36:08;;;;;;;12.52;6.75;;;3.30;58.40;;;;;;2565715;53;20922;-67
2021/03/07 02:38:36;;;;;;;10.85;5.85;;;3.30;58.60;;;;;;2556254;53;20937;-67
2021/03/07 02:41:03;;;;;;;11.30;6.15;;;3.30;58.80;;;;;;2571010;53;20985;-67
2021/03/07 02:43:34;;;;;;;10.02;5.62;;;3.30;58.90;;;;;;2327400;54;20973;-66
2021/03/07 02:46:03;;;;;;;10.48;5.65;;;3.30;59.00;;;;;;2331052;54;21017;-67
2021/03/07 02:48:30;;;;;;;10.27;5.40;;;3.30;59.00;;;;;;2328984;54;21067;-66
2021/03/07 02:50:57;;;;;;;10.02;5.53;;;3.30;59.10;;;;;;2326632;54;20895;-66
2021/03/07 02:53:25;;;;;;;11.27;5.65;;;3.40;59.10;;;;;;2559066;53;21009;-67
2021/03/07 02:55:56;;;;;;;11.20;6.12;;;3.40;59.10;;;;;;2331201;54;20950;-67
2021/03/07 02:58:25;;;;;;;10.50;5.55;;;3.40;59.20;;;;;;2322706;54;20937;-67
2021/03/07 03:00:57;;;;;;;9.20;5.25;;;3.50;59.30;;;;;;2326551;54;20942;-67
2021/03/07 03:03:28;;;;;;;10.68;5.62;;;3.50;59.30;;;;;;2566027;53;20940;-67
2021/03/07 03:05:54;;;;;;;10.45;5.85;;;3.50;59.30;;;;;;2560445;53;20990;-67
2021/03/07 03:08:21;;;;;;;11.52;7.30;;;3.50;59.30;;;;;;2331916;54;21018;-68
2021/03/07 03:10:48;;;;;;;14.75;6.57;;;3.50;59.90;;;;;;2556129;53;21010;-67
2021/03/07 03:13:24;;;;;;;13.88;7.65;;;3.50;59.40;;;;;;2336684;54;20945;-67
2021/03/07 03:15:51;;;;;;;13.00;6.97;;;3.60;59.40;;;;;;2327544;54;21014;-68
2021/03/07 03:18:18;;;;;;;10.25;5.95;;;3.60;59.40;;;;;;2331693;54;21335;-67
2021/03/07 03:20:44;;;;;;;12.45;6.90;;;3.60;59.40;;;;;;2326879;54;21279;-67
2021/03/07 03:23:10;;;;;;;9.13;5.62;;;3.60;59.40;;;;;;2321789;54;21070;-68
2021/03/07 03:25:36;;;;;;;10.30;5.50;;;3.70;59.40;;;;;;2334713;54;20993;-67
2021/03/07 03:28:07;;;;;;;14.13;6.15;;;3.60;59.30;;;;;;2327318;54;20946;-67
2021/03/07 03:30:34;;;;;;;10.80;5.97;;;3.70;59.30;;;;;;2323685;54;20986;-67
2021/03/07 03:33:03;;;;;;;10.38;5.43;;;3.60;59.20;;;;;;2555515;53;20917;-67
2021/03/07 03:35:29;;;;;;;11.63;5.82;;;3.70;59.30;;;;;;2336027;54;20951;-67
2021/03/07 03:37:55;;;;;;;16.00;7.80;;;3.70;59.20;;;;;;2322611;54;21033;-68
2021/03/07 03:40:26;;;;;;;13.88;7.90;;;3.60;59.10;;;;;;2323185;54;20982;-67
2021/03/07 03:43:01;;;;;;;14.52;7.97;;;3.70;59.30;;;;;;2561058;53;20962;-67
2021/03/07 03:45:28;;;;;;;12.57;7.57;;;3.70;59.30;;;;;;2565156;53;21200;-67
2021/03/07 03:47:57;;;;;;;14.60;7.93;;;3.70;59.30;;;;;;2571652;53;20963;-66
2021/03/07 03:50:24;;;;;;;13.20;7.32;;;3.70;59.30;;;;;;2336995;54;21681;-67
2021/03/07 03:52:51;;;;;;;13.60;7.07;;;3.70;59.40;;;;;;2557059;53;21041;-67
2021/03/07 03:55:26;;;;;;;12.40;7.25;;;3.70;59.40;;;;;;2557811;53;21002;-67
2021/03/07 03:58:01;;;;;;;11.45;7.35;;;3.70;60.10;;;;;;2333124;54;21042;-68
2021/03/07 04:00:28;;;;;;;11.85;6.85;;;3.70;59.50;;;;;;2333291;54;20923;-68
2021/03/07 04:02:55;;;;;;;10.82;6.30;;;3.80;59.60;;;;;;2557559;53;21102;-67
2021/03/07 04:05:22;;;;;;;12.82;7.35;;;3.80;59.60;;;;;;2324157;54;20962;-67
2021/03/07 04:07:48;;;;;;;12.13;7.18;;;3.80;59.60;;;;;;2557795;53;21002;-68
2021/03/07 04:10:15;;;;;;;10.65;5.72;;;3.70;59.50;;;;;;2558336;53;21808;-67
2021/03/07 04:12:51;;;;;;;11.40;6.53;;;3.80;59.50;;;;;;2322865;54;21017;-67
2021/03/07 04:15:22;;;;;;;15.00;7.22;;;3.90;59.50;;;;;;2569069;53;20944;-68
2021/03/07 04:17:50;;;;;;;12.90;6.72;;;3.90;59.60;;;;;;2323699;54;20973;-67
2021/03/07 04:20:16;;;;;;;11.25;6.37;;;3.90;59.50;;;;;;2572254;53;20918;-66
2021/03/07 04:22:43;;;;;;;13.30;6.85;;;3.90;59.50;;;;;;2327586;54;21077;-67
2021/03/07 04:25:10;;;;;;;11.98;6.90;;;3.90;59.50;;;;;;2333374;54;21654;-67
2021/03/07 04:27:36;;;;;;;11.60;6.10;;;3.90;59.50;;;;;;2557507;53;21089;-68
2021/03/07 04:30:07;;;;;;;11.02;6.10;;;3.90;59.50;;;;;;2327474;54;21030;-67
2021/03/07 04:32:34;;;;;;;10.05;5.05;;;3.90;60.10;;;;;;2323560;54;20986;-67
2021/03/07 04:35:00;;;;;;;11.23;5.70;;;3.90;59.50;;;;;;2323300;54;21565;-68
2021/03/07 04:37:27;;;;;;;11.90;6.07;;;3.90;59.40;;;;;;2559047;53;21044;-67
2021/03/07 04:39:53;;;;;;;11.25;6.35;;;3.90;59.40;;;;;;2323119;54;20997;-68
2021/03/07 04:42:20;;;;;;;13.02;7.20;;;3.80;59.30;;;;;;2559037;53;21050;-68
2021/03/07 04:44:46;;;;;;;10.98;6.12;;;3.80;59.30;;;;;;2335599;54;20916;-67
2021/03/07 04:47:13;;;;;;;12.35;6.47;;;3.80;59.30;;;;;;2321443;54;21074;-67
2021/03/07 04:49:40;;;;;;;9.73;6.05;;;3.80;59.30;;;;;;2320162;54;21062;-68
2021/03/07 04:52:06;;;;;;;12.07;6.47;;;3.80;59.30;;;;;;2324910;54;20984;-67
2021/03/07 04:54:34;;;;;;;10.50;5.60;;;3.80;59.20;;;;;;2324259;54;20965;-67
2021/03/07 04:57:06;;;;;;;9.00;4.82;;;3.80;59.20;;;;;;2568101;53;20936;-67
2021/03/07 04:59:33;;;;;;;9.18;5.40;;;3.70;59.00;;;;;;2328241;54;20941;-67
2021/03/07 05:01:59;;;;;;;10.90;5.28;;;3.70;59.00;;;;;;2318476;54;20994;-67
2021/03/07 05:04:26;;;;;;;8.75;5.15;;;3.60;58.90;;;;;;2322694;54;21473;-68
2021/03/07 05:06:53;;;;;;;9.73;5.12;;;3.60;58.80;;;;;;2338462;54;21363;-67
2021/03/07 05:09:19;;;;;;;8.55;4.32;;;3.60;58.80;;;;;;2322765;54;21054;-67
2021/03/07 05:11:46;;;;;;;9.55;5.30;;;3.50;58.70;;;;;;2323252;54;21443;-68
2021/03/07 05:14:12;;;;;;;10.02;5.22;;;3.50;58.70;;;;;;2556526;53;20939;-68
2021/03/07 05:16:38;;;;;;;9.57;4.62;;;3.50;58.80;;;;;;2333758;54;20966;-67
2021/03/07 05:19:05;;;;;;;7.55;4.25;;;3.40;58.70;;;;;;2556437;53;21061;-68
2021/03/07 05:21:31;;;;;;;10.57;4.90;;;3.40;58.70;;;;;;2557050;53;20936;-67
2021/03/07 05:24:00;;;;;;;9.10;4.60;;;3.40;58.80;;;;;;2332786;54;20974;-67
2021/03/07 05:26:27;;;;;;;9.13;4.72;;;3.30;58.70;;;;;;2323196;54;21915;-67
2021/03/07 05:28:55;;;;;;;7.90;4.15;;;3.30;58.70;;;;;;2326064;54;20953;-66
2021/03/07 05:31:21;;;;;;;10.43;4.72;;;3.20;58.70;;;;;;2557484;53;20998;-67
2021/03/07 05:33:48;;;;;;;10.85;5.53;;;3.20;58.70;;;;;;2570658;53;21046;-66
2021/03/07 05:36:14;;;;;;;8.75;4.80;;;3.10;58.70;;;;;;2327337;54;20954;-67
2021/03/07 05:38:40;;;;;;;10.43;5.22;;;3.10;58.70;;;;;;2562650;53;20951;-66
2021/03/07 05:41:06;;;;;;;9.27;5.07;;;3.10;58.70;;;;;;2328402;54;20969;-67
2021/03/07 05:43:33;;;;;;;10.43;6.10;;;3.00;58.70;;;;;;2327778;54;20931;-68
2021/03/07 05:46:01;;;;;;;8.77;4.57;;;3.00;58.80;;;;;;2556613;53;20997;-67
2021/03/07 05:48:28;;;;;;;9.98;4.85;;;2.90;58.80;;;;;;2328861;54;21109;-66
2021/03/07 05:50:56;;;;;;;10.05;4.85;;;2.90;58.80;;;;;;2562852;53;20970;-67
2021/03/07 05:53:23;;;;;;;9.50;4.75;;;2.90;59.40;;;;;;2566222;53;20997;-67
2021/03/07 05:55:52;;;;;;;7.85;4.40;;;2.80;58.70;;;;;;2557329;53;20962;-66
2021/03/07 05:58:19;;;;;;;10.02;5.50;;;2.80;58.80;;;;;;2557055;53;21026;-67
2021/03/07 06:00:45;;;;;;;6.47;3.80;;;2.80;58.80;;;;;;2322490;54;20950;-67
2021/03/07 06:03:13;;;;;;;7.50;3.87;;;2.70;58.90;;;;;;2571293;53;21002;-68
2021/03/07 06:05:40;;;;;;;6.85;3.70;;;2.70;58.90;;;;;;2326305;54;21002;-66
2021/03/07 06:08:07;;;;;;;9.55;5.20;;;2.60;58.80;;;;;;2331443;54;20969;-67
2021/03/07 06:10:33;;;;;;;9.75;5.30;;;2.60;58.90;;;;;;2322010;54;21763;-67
2021/03/07 06:13:05;;;;;;;10.80;5.72;;;2.60;59.60;;;;;;2326309;53;21810;-67
2021/03/07 06:15:57;;;;;;;11.90;5.65;;;2.60;59.10;;;;;;2323363;54;20982;-67
2021/03/07 06:18:24;;;;;;;10.15;5.07;;;2.60;59.20;;;;;;2557078;53;20966;-66
2021/03/07 06:20:51;;;;;;;9.32;5.00;;;2.50;59.20;;;;;;2323254;54;20982;-67
2021/03/07 06:23:18;;;;;;;9.95;4.53;;;2.50;59.20;;;;;;2557802;53;22272;-67
2021/03/07 06:25:51;;;;;;;9.00;5.00;;;2.50;59.30;;;;;;2569837;53;20999;-68
2021/03/07 06:28:24;;;;;;;8.27;4.95;;;2.40;59.30;;;;;;2320906;54;21057;-67
2021/03/07 06:30:53;;;;;;;10.63;5.53;;;2.50;59.50;;;;;;2323389;54;20952;-68
2021/03/07 06:33:33;;;;;;;8.05;4.43;;;2.50;59.50;;;;;;2568910;53;21490;-67
2021/03/07 06:36:18;;;;;;;8.93;4.70;;;2.40;59.50;;;;;;2322253;54;21013;-67
2021/03/07 06:38:49;;;;;;;8.57;4.90;;;2.50;59.60;;;;;;2323586;54;21442;-67
2021/03/07 06:41:17;;;;;;;8.82;4.93;;;2.50;59.80;;;;;;2321557;54;20909;-67
2021/03/07 06:43:44;;;;;;;10.40;5.18;;;2.50;59.90;;;;;;2328429;53;20944;-67
2021/03/07 06:46:31;;;;;;;11.75;6.12;;;2.50;60.00;;;;;;2329730;54;20986;-67
2021/03/07 06:48:58;;;;;;;10.90;5.30;;;2.50;60.10;;;;;;2326384;54;21005;-67
2021/03/07 06:51:29;;;;;;;12.73;5.70;;;2.50;60.20;;;;;;2321555;54;20978;-67
2021/03/07 06:53:56;;;;;;;12.15;5.68;;;2.60;60.50;;;;;;2322884;54;20938;-67
2021/03/07 06:56:42;;;;;;;10.20;5.68;;;2.60;60.60;;;;;;2569986;53;21000;-67
2021/03/07 06:59:15;;;;;;;12.85;5.82;;;2.60;60.50;;;;;;2323276;54;20934;-67
2021/03/07 07:01:49;;;;;;;10.10;5.50;;;2.70;60.80;;;;;;2337124;54;21001;-67
2021/03/07 07:04:16;;;;;;;10.55;5.95;;;2.70;61.60;;;;;;2531086;53;20958;-67
2021/03/07 07:06:42;;;;;;;10.57;5.65;;;2.70;61.00;;;;;;2327238;54;20946;-67
2021/03/07 07:09:10;;;;;;;8.88;5.12;;;2.80;61.10;;;;;;2326291;54;20942;-67
2021/03/07 07:11:44;;;;;;;10.52;5.97;;;2.80;61.20;;;;;;2326567;54;21049;-67
2021/03/07 07:14:11;;;;;;;9.77;4.93;;;2.90;61.30;;;;;;2323694;54;20952;-67
2021/03/07 07:16:37;;;;;;;12.93;6.20;;;3.00;61.40;;;;;;2556216;53;21090;-66
2021/03/07 07:19:04;;;;;;;10.70;5.65;;;3.00;61.40;;;;;;2322146;54;21192;-66
2021/03/07 07:21:31;;;;;;;12.65;6.55;;;3.10;61.50;;;;;;2338489;53;21438;-68
2021/03/07 07:23:57;;;;;;;13.95;7.22;;;3.10;61.60;;;;;;2329868;54;21034;-67
2021/03/07 07:26:24;;;;;;;12.73;6.97;;;3.20;61.70;;;;;;2320866;54;20954;-67
2021/03/07 07:28:52;;;;;;;12.68;7.22;;;3.30;61.70;;;;;;2555511;53;21031;-67
2021/03/07 07:33:04;;;;;;;13.77;6.60;;;3.30;61.70;;;;;;2320533;54;21077;-66
2021/03/07 07:35:30;;;;;;;14.70;6.70;;;3.40;61.90;;;;;;2332668;54;21042;-67
2021/03/07 07:38:00;;;;;;;11.68;7.12;;;3.50;61.90;;;;;;2322472;54;21382;-67
2021/03/07 07:41:00;;;;;;;11.93;6.65;;;3.60;62.10;;;;;;2325145;54;20914;-67
2021/03/07 07:43:47;;;;;;;15.82;9.02;;;3.70;61.80;;;;;;2556289;53;21355;-66
2021/03/07 07:46:14;;;;;;;12.80;7.57;;;3.80;62.30;;;;;;2333394;54;21049;-66
2021/03/07 07:48:40;;;;;;;14.02;8.60;;;3.90;62.20;;;;;;2324682;54;21073;-66
2021/03/07 07:51:35;;;;;;;20.20;12.80;;;3.90;62.20;;;;;;2322783;54;20978;-67
2021/03/07 07:54:01;;;;;;;15.85;9.65;;;4.00;62.10;;;;;;2324343;54;20946;-67
2021/03/07 07:56:38;;;;;;;12.63;8.15;;;4.10;62.30;;;;;;2327522;54;21058;-67
2021/03/07 07:59:14;;;;;;;11.90;7.12;;;4.20;62.30;;;;;;2322668;54;20998;-67
2021/03/07 08:01:56;;;;;;;12.05;6.85;;;4.30;62.40;;;;;;2329978;54;20958;-66
2021/03/07 08:04:55;;;;;;;11.57;6.68;;;4.40;62.40;;;;;;2556033;53;21069;-67
2021/03/07 08:07:25;;;;;;;12.43;6.80;;;4.50;62.10;;;;;;2323327;54;20942;-66
2021/03/07 08:09:54;;;;;;;12.05;6.18;;;4.50;62.40;;;;;;2320635;54;21049;-66
2021/03/07 08:12:48;;;;;;;12.50;7.12;;;4.60;62.40;;;;;;2325512;54;21512;-66
2021/03/07 08:17:06;;;;;;;12.45;6.82;;;4.70;62.10;;;;;;2330566;54;21007;-66
2021/03/07 08:19:42;;;;;;;13.48;7.03;;;4.90;61.50;;;;;;2341432;54;21451;-66
2021/03/07 08:22:08;;;;;;;13.82;7.85;;;4.90;62.20;;;;;;2555936;53;20978;-68
2021/03/07 08:24:58;;;;;;;10.25;6.22;;;5.00;62.50;;;;;;2325573;54;21478;-67
2021/03/07 08:27:37;;;;;;;10.68;6.62;;;5.10;62.40;;;;;;2324520;54;20953;-68
2021/03/07 08:30:14;;;;;;;13.02;7.85;;;5.30;63.80;;;;;;2582712;53;21405;-67
2021/03/07 08:32:44;;;;;;;10.55;6.50;;;5.50;65.20;;;;;;2322123;54;20982;-66
2021/03/07 08:35:24;;;;;;;10.10;6.30;;;5.80;66.00;;;;;;2311859;54;20982;-67
2021/03/07 08:38:15;;;;;;;11.95;6.47;;;6.20;66.50;;;;;;2554994;53;21094;-67
2021/03/07 08:40:55;;;;;;;8.55;5.15;;;6.70;66.60;;;;;;2556825;53;21034;-67
2021/03/07 08:44:12;;;;;;;8.93;5.35;;;7.00;67.40;;;;;;2323504;54;21002;-67
2021/03/07 08:46:59;;;;;;;8.18;5.25;;;7.50;66.20;;;;;;2555871;53;20958;-67
2021/03/07 08:49:26;;;;;;;8.13;5.03;;;7.90;66.30;;;;;;2555669;53;20926;-68
2021/03/07 08:52:05;;;;;;;8.18;5.10;;;8.20;66.90;;;;;;2326756;54;21419;-66
2021/03/07 08:54:34;;;;;;;8.10;5.32;;;8.50;66.20;;;;;;2325652;54;21026;-66
2021/03/07 08:57:07;;;;;;;7.93;5.10;;;8.90;66.60;;;;;;2556775;53;20980;-67
2021/03/07 08:59:34;;;;;;;8.48;5.18;;;9.20;66.00;;;;;;2334290;54;20982;-67
2021/03/07 09:02:01;;;;;;;8.63;5.55;;;9.40;65.60;;;;;;2323635;54;20953;-67
2021/03/07 09:04:34;;;;;;;8.68;5.80;;;9.60;64.70;;;;;;2330209;54;21838;-68
2021/03/07 09:07:02;;;;;;;10.10;5.65;;;9.80;63.70;;;;;;2329571;54;20956;-67
2021/03/07 09:09:28;;;;;;;8.70;5.32;;;9.90;63.70;;;;;;2326566;54;21009;-68
2021/03/07 09:12:17;;;;;;;9.43;6.65;;;9.90;63.30;;;;;;2556361;53;20943;-68
2021/03/07 09:14:43;;;;;;;9.65;6.25;;;10.00;60.70;;;;;;2321825;54;20977;-70
2021/03/07 09:17:20;;;;;;;9.40;5.62;;;10.00;61.20;;;;;;2542352;53;20951;-69
2021/03/07 09:19:46;;;;;;;9.27;5.37;;;10.00;60.30;;;;;;2581663;53;21149;-70
2021/03/07 09:22:31;;;;;;;8.32;5.15;;;10.10;60.70;;;;;;2329532;54;20946;-68
2021/03/07 09:25:16;;;;;;;7.35;5.07;;;10.10;59.60;;;;;;2332780;54;20982;-71
2021/03/07 09:27:43;;;;;;;9.90;5.15;;;10.10;59.40;;;;;;2527006;53;21657;-69
2021/03/07 09:30:16;;;;;;;8.05;5.30;;;10.10;60.20;;;;;;2563246;53;20979;-69
2021/03/07 09:32:47;;;;;;;7.80;4.62;;;10.10;60.20;;;;;;2577336;53;21754;-68
2021/03/07 09:35:37;;;;;;;8.27;4.83;;;10.20;60.90;;;;;;2555268;53;21027;-69
2021/03/07 09:38:10;;;;;;;7.57;5.10;;;10.20;60.90;;;;;;2326853;54;20957;-68
2021/03/07 09:40:38;;;;;;;7.65;5.10;;;10.40;61.70;;;;;;2554720;53;21041;-68
2021/03/07 09:43:11;;;;;;;7.72;5.25;;;10.50;62.40;;;;;;2323447;54;21001;-67
2021/03/07 09:45:40;;;;;;;10.23;5.60;;;10.70;62.60;;;;;;2570734;53;21252;-68
2021/03/07 09:48:16;;;;;;;9.07;5.20;;;10.80;62.30;;;;;;2307481;54;20962;-67
2021/03/07 09:50:43;;;;;;;7.62;5.35;;;11.00;62.60;;;;;;2332073;54;20942;-69
2021/03/07 09:53:10;;;;;;;8.18;5.78;;;11.10;62.90;;;;;;2326009;54;21026;-71
2021/03/07 09:55:36;;;;;;;8.75;5.78;;;11.30;62.90;;;;;;2563114;53;20970;-72
2021/03/07 09:58:08;;;;;;;7.82;5.40;;;11.50;63.20;;;;;;2325836;54;21776;-70
2021/03/07 10:00:41;;;;;;;8.10;5.87;;;11.70;63.10;;;;;;2579631;53;21828;-68
2021/03/07 10:03:45;;;;;;;9.35;5.85;;;11.90;63.80;;;;;;2339481;54;20950;-70
2021/03/07 10:06:18;;;;;;;8.75;4.75;;;12.30;62.30;;;;;;2577543;53;20940;-72
2021/03/07 10:09:12;;;;;;;8.00;5.72;;;12.60;64.30;;;;;;2324571;54;20942;-70
2021/03/07 10:11:38;;;;;;;8.15;4.78;;;12.90;63.60;;;;;;2556392;53;20986;-68
2021/03/07 10:14:05;;;;;;;8.13;4.97;;;13.20;65.40;;;;;;2331496;54;20958;-68
2021/03/07 10:16:33;;;;;;;9.65;5.47;;;13.50;65.40;;;;;;2329793;54;20991;-68
2021/03/07 10:19:04;;;;;;;10.35;7.85;;;13.80;65.10;;;;;;2557663;53;20922;-70
2021/03/07 10:21:31;;;;;;;9.45;6.40;;;14.00;64.60;;;;;;2322606;54;21313;-70
2021/03/07 10:24:11;;;;;;;8.48;6.05;;;14.30;65.10;;;;;;2333249;54;20946;-69
2021/03/07 10:26:38;;;;;;;8.88;5.85;;;14.50;63.50;;;;;;2325604;54;20974;-68
2021/03/07 10:29:28;;;;;;;8.52;6.28;;;14.80;64.50;;;;;;2331581;54;20951;-68
2021/03/07 10:31:59;;;;;;;8.27;5.85;;;15.10;62.10;;;;;;2563664;53;20986;-73
2021/03/07 10:34:32;;;;;;;8.27;6.03;;;15.40;64.10;;;;;;2324456;54;21887;-72
2021/03/07 10:36:58;;;;;;;12.02;7.30;;;15.60;63.70;;;;;;2324860;54;21171;-72
2021/03/07 10:39:27;;;;;;;8.40;6.25;;;15.90;64.30;;;;;;2328313;54;20962;-71
2021/03/07 10:42:05;;;;;;;8.40;5.95;;;16.20;64.70;;;;;;2561091;53;21049;-70
2021/03/07 10:44:32;;;;;;;7.95;5.95;;;16.50;63.80;;;;;;2579899;53;21058;-69
2021/03/07 10:47:18;;;;;;;7.20;5.15;;;16.80;64.70;;;;;;2326209;54;21503;-70
2021/03/07 10:49:47;;;;;;;7.10;5.18;;;17.10;62.30;;;;;;2334354;54;20974;-71
2021/03/07 10:52:13;;;;;;;8.13;5.55;;;17.40;63.80;;;;;;2556787;53;21762;-71
2021/03/07 10:54:40;;;;;;;7.03;5.25;;;17.60;63.20;;;;;;2569753;53;21028;-75
2021/03/07 10:57:10;;;;;;;7.43;5.30;;;17.70;62.20;;;;;;2554955;53;20950;-70
2021/03/07 10:59:37;;;;;;;7.10;5.18;;;17.90;60.80;;;;;;2555431;53;20922;-72
2021/03/07 11:02:06;;;;;;;7.80;5.87;;;18.00;60.50;;;;;;2558249;53;21450;-71
2021/03/07 11:04:32;;;;;;;8.35;5.78;;;18.00;59.50;;;;;;2330172;54;20999;-72
2021/03/07 11:06:59;;;;;;;8.45;5.82;;;18.00;58.50;;;;;;2328140;54;20922;-72
2021/03/07 11:09:26;;;;;;;7.43;5.62;;;17.90;57.40;;;;;;2317741;54;20990;-73
2021/03/07 11:11:55;;;;;;;7.47;5.53;;;17.80;57.10;;;;;;2565845;53;21014;-72
2021/03/07 11:14:21;;;;;;;9.95;6.10;;;17.60;56.90;;;;;;2329144;54;21468;-70
2021/03/07 11:16:48;;;;;;;7.18;5.55;;;17.50;57.20;;;;;;2554947;53;21070;-70
2021/03/07 11:19:17;;;;;;;8.50;5.53;;;17.40;57.10;;;;;;2583204;53;20934;-70
2021/03/07 11:21:43;;;;;;;8.40;5.93;;;17.30;57.00;;;;;;2329980;54;20906;-72
2021/03/07 11:24:09;;;;;;;7.55;5.55;;;17.10;57.00;;;;;;2337587;54;21014;-70
2021/03/07 11:26:35;;;;;;;7.53;5.93;;;17.00;56.90;;;;;;2555284;53;21034;-70
2021/03/07 11:29:02;;;;;;;9.27;5.62;;;16.90;57.20;;;;;;2554899;53;21042;-73
2021/03/07 11:31:29;;;;;;;8.95;6.15;;;16.90;57.70;;;;;;2562880;53;21010;-70
2021/03/07 11:33:55;;;;;;;7.87;5.47;;;16.90;58.40;;;;;;2557187;52;21026;-73
2021/03/07 11:36:25;;;;;;;7.47;5.70;;;16.90;58.90;;;;;;2563120;53;21018;-74
2021/03/07 11:38:51;;;;;;;8.35;5.68;;;17.10;58.80;;;;;;2575301;53;21046;-72
2021/03/07 11:41:18;;;;;;;8.55;6.12;;;17.20;59.10;;;;;;2324499;54;21815;-69
2021/03/07 11:43:44;;;;;;;8.40;5.80;;;17.20;59.10;;;;;;2553611;53;20954;-70
2021/03/07 11:46:10;;;;;;;7.10;5.40;;;17.30;59.00;;;;;;2324165;53;21005;-71
2021/03/07 11:48:37;;;;;;;8.13;5.87;;;17.30;58.80;;;;;;2318559;54;21022;-70
2021/03/07 11:51:05;;;;;;;8.20;6.43;;;17.40;58.40;;;;;;2315170;54;21025;-70
2021/03/07 11:53:31;;;;;;;10.73;7.37;;;17.40;58.30;;;;;;2326996;54;21443;-70
2021/03/07 11:55:58;;;;;;;10.50;7.18;;;17.50;58.40;;;;;;2323591;54;20914;-70
2021/03/07 11:58:24;;;;;;;9.95;6.50;;;17.50;58.30;;;;;;2329356;54;21016;-71
2021/03/07 12:00:50;;;;;;;9.55;6.62;;;17.50;57.80;;;;;;2556763;53;21814;-71
2021/03/07 12:03:16;;;;;;;8.77;6.05;;;17.50;57.60;;;;;;2326861;54;21123;-71
2021/03/07 12:05:43;;;;;;;8.70;6.28;;;17.50;57.50;;;;;;2541244;53;21024;-71
2021/03/07 12:08:09;;;;;;;8.95;6.35;;;17.50;57.50;;;;;;2328816;54;20934;-69
2021/03/07 12:10:35;;;;;;;9.07;6.62;;;17.50;57.50;;;;;;2558207;53;21025;-72
2021/03/07 12:13:01;;;;;;;8.20;6.45;;;17.50;57.70;;;;;;2320384;54;21017;-71
2021/03/07 12:15:28;;;;;;;9.45;7.00;;;17.50;58.10;;;;;;2321772;54;21024;-70
2021/03/07 12:17:55;;;;;;;10.07;6.43;;;17.50;58.10;;;;;;2556650;53;20955;-69
2021/03/07 12:20:21;;;;;;;9.43;6.62;;;17.50;57.50;;;;;;2570963;53;20954;-69
2021/03/07 12:22:48;;;;;;;9.45;6.50;;;17.40;57.00;;;;;;2557062;53;20977;-70
2021/03/07 12:25:14;;;;;;;11.15;7.32;;;17.40;56.80;;;;;;2557207;53;20978;-71
2021/03/07 12:27:41;;;;;;;9.63;6.60;;;17.30;56.50;;;;;;2556948;53;21823;-71
2021/03/07 12:30:08;;;;;;;10.23;6.62;;;17.20;56.30;;;;;;2529079;53;21122;-70
2021/03/07 12:32:35;;;;;;;9.07;6.37;;;17.20;56.20;;;;;;2557039;53;21529;-70
2021/03/07 12:35:01;;;;;;;9.68;6.50;;;17.20;56.20;;;;;;2556310;53;20927;-70
2021/03/07 12:37:27;;;;;;;10.23;6.97;;;17.10;56.20;;;;;;2323420;53;21685;-69
2021/03/07 12:39:54;;;;;;;10.43;6.70;;;17.00;56.40;;;;;;2323142;54;21029;-70
2021/03/07 12:42:23;;;;;;;10.95;7.32;;;17.00;56.50;;;;;;2323193;54;21020;-70
2021/03/07 12:44:52;;;;;;;8.93;6.22;;;17.00;56.40;;;;;;2560409;53;20911;-69
2021/03/07 12:47:18;;;;;;;8.95;6.37;;;17.00;56.60;;;;;;2334204;54;21006;-68
2021/03/07 12:49:44;;;;;;;9.68;7.03;;;17.00;56.50;;;;;;2562896;53;21511;-70
2021/03/07 12:52:14;;;;;;;12.30;6.75;;;17.00;56.30;;;;;;2568133;53;21497;-70
2021/03/07 12:54:40;;;;;;;9.68;7.12;;;17.00;56.70;;;;;;2330324;54;20994;-70
2021/03/07 12:57:08;;;;;;;10.82;6.85;;;17.00;57.30;;;;;;2323014;54;20899;-72
2021/03/07 12:59:35;;;;;;;10.27;6.50;;;17.10;57.80;;;;;;2322082;54;21061;-70
2021/03/07 13:02:01;;;;;;;9.55;7.45;;;17.20;58.10;;;;;;2557106;53;20958;-69
2021/03/07 13:04:29;;;;;;;9.85;7.32;;;17.30;58.00;;;;;;2556861;53;20978;-71